createdAt,value
2022-12-05T00:01:43.091Z,76.43
2022-12-05T00:04:13.342Z,67.88
2022-12-05T00:06:42.127Z,72.60
2022-12-05T00:09:11.071Z,70.38
2022-12-05T00:11:39.434Z,67.05
2022-12-05T00:14:08.691Z,61.00
2022-12-05T00:16:38.246Z,55.35
2022-12-05T00:19:07.038Z,67.70
2022-12-05T00:21:35.530Z,61.53
2022-12-05T00:24:04.454Z,60.53
2022-12-05T00:26:32.430Z,62.90
2022-12-05T00:28:59.975Z,64.75
2022-12-05T00:31:27.968Z,64.80
2022-12-05T00:33:56.248Z,62.40
2022-12-05T00:36:27.295Z,64.75
2022-12-05T00:38:54.554Z,61.60
2022-12-05T00:41:23.849Z,59.35
2022-12-05T00:43:51.659Z,70.88
2022-12-05T00:46:21.186Z,65.03
2022-12-05T00:48:48.868Z,67.20
2022-12-05T00:51:19.227Z,72.35
2022-12-05T00:53:47.781Z,68.85
2022-12-05T00:56:17.755Z,73.25
2022-12-05T00:58:45.327Z,74.18
2022-12-05T01:01:19.675Z,74.40
2022-12-05T01:03:47.807Z,65.60
2022-12-05T01:06:16.018Z,71.63
2022-12-05T01:08:43.595Z,68.82
2022-12-05T01:11:11.944Z,60.47
2022-12-05T01:13:38.808Z,67.63
2022-12-05T01:16:06.332Z,71.88
2022-12-05T01:18:33.499Z,66.47
2022-12-05T01:21:00.357Z,74.22
2022-12-05T01:23:27.201Z,65.38
2022-12-05T01:25:54.097Z,67.47
2022-12-05T01:28:21.280Z,70.93
2022-12-05T01:30:49.441Z,69.40
2022-12-05T01:33:17.182Z,77.07
2022-12-05T01:35:44.577Z,78.38
2022-12-05T01:38:13.080Z,73.32
2022-12-05T01:40:40.461Z,73.63
2022-12-05T01:43:15.983Z,76.15
2022-12-05T01:45:46.034Z,71.35
2022-12-05T01:48:21.225Z,65.97
2022-12-05T01:50:50.882Z,61.85
2022-12-05T01:53:18.318Z,73.07
2022-12-05T01:55:47.755Z,75.80
2022-12-05T01:58:15.836Z,65.40
2022-12-05T02:00:43.386Z,60.88
2022-12-05T02:03:18.438Z,60.08
2022-12-05T02:05:52.593Z,63.40
2022-12-05T02:08:19.876Z,67.05
2022-12-05T02:10:56.869Z,62.75
2022-12-05T02:13:42.818Z,72.85
2022-12-05T02:19:14.299Z,56.53
2022-12-05T02:22:01.532Z,56.75
2022-12-05T02:24:53.583Z,56.17
2022-12-05T02:27:46.165Z,58.92
2022-12-05T02:30:17.988Z,61.83
2022-12-05T02:33:03.640Z,52.58
2022-12-05T02:36:05.111Z,54.60
2022-12-05T02:38:41.361Z,55.03
2022-12-05T02:41:44.534Z,50.03
2022-12-05T02:44:27.358Z,53.38
2022-12-05T02:46:56.080Z,54.15
2022-12-05T02:49:28.680Z,54.30
2022-12-05T02:52:02.088Z,62.42
2022-12-05T02:54:35.355Z,57.13
2022-12-05T02:57:02.877Z,51.05
2022-12-05T02:59:29.761Z,50.55
2022-12-05T03:01:57.170Z,59.58
2022-12-05T03:04:26.640Z,56.50
2022-12-05T03:06:57.993Z,56.05
2022-12-05T03:09:30.824Z,57.25
2022-12-05T03:12:26.740Z,49.95
2022-12-05T03:15:00.267Z,51.67
2022-12-05T03:17:32.312Z,51.33
2022-12-05T03:20:26.781Z,54.80
2022-12-05T03:23:06.033Z,56.20
2022-12-05T03:26:01.379Z,57.65
2022-12-05T03:28:50.768Z,65.80
2022-12-05T03:31:25.949Z,48.60
2022-12-05T03:33:58.639Z,54.45
2022-12-05T03:36:34.390Z,53.85
2022-12-05T03:39:07.794Z,51.47
2022-12-05T03:41:53.457Z,58.03
2022-12-05T03:44:40.356Z,57.35
2022-12-05T03:47:20.097Z,50.70
2022-12-05T03:49:51.602Z,54.58
2022-12-05T03:52:27.442Z,53.47
2022-12-05T03:54:58.734Z,57.95
2022-12-05T03:57:34.585Z,52.83
2022-12-05T04:00:21.027Z,65.40
2022-12-05T04:02:56.104Z,62.42
2022-12-05T04:05:36.169Z,64.90
2022-12-05T04:08:28.526Z,60.17
2022-12-05T04:11:01.568Z,52.90
2022-12-05T04:13:37.507Z,52.95
2022-12-05T04:16:34.764Z,55.17
2022-12-05T04:19:16.557Z,51.30
2022-12-05T04:21:51.323Z,51.58
2022-12-05T04:24:50.194Z,59.15
2022-12-05T04:27:34.229Z,52.03
2022-12-05T04:30:06.605Z,51.40
2022-12-05T04:32:47.620Z,49.97
2022-12-05T04:35:26.501Z,53.85
2022-12-05T04:38:00.485Z,48.63
2022-12-05T04:40:39.132Z,50.58
2022-12-05T04:43:07.265Z,50.90
2022-12-05T04:45:37.781Z,54.20
2022-12-05T04:48:11.867Z,49.95
2022-12-05T04:50:40.636Z,53.70
2022-12-05T04:53:10.831Z,52.15
2022-12-05T04:55:42.018Z,52.58
2022-12-05T04:58:25.377Z,55.55
2022-12-05T05:01:46.054Z,51.35
2022-12-05T05:04:21.728Z,48.20
2022-12-05T05:06:48.695Z,45.60
2022-12-05T05:09:15.521Z,44.70
2022-12-05T05:11:42.526Z,56.30
2022-12-05T05:14:09.468Z,49.97
2022-12-05T05:16:39.148Z,52.78
2022-12-05T05:19:06.908Z,44.53
2022-12-05T05:21:40.058Z,49.58
2022-12-05T05:24:08.192Z,55.35
2022-12-05T05:26:37.047Z,48.47
2022-12-05T05:29:04.200Z,47.17
2022-12-05T05:31:31.287Z,55.72
2022-12-05T05:34:03.246Z,53.90
2022-12-05T05:36:34.963Z,55.53
2022-12-05T05:39:04.175Z,57.10
2022-12-05T05:41:36.302Z,56.72
2022-12-05T05:44:04.837Z,52.67
2022-12-05T05:46:33.772Z,49.80
2022-12-05T05:49:00.760Z,48.30
2022-12-05T05:51:29.416Z,50.65
2022-12-05T05:53:57.830Z,55.28
2022-12-05T05:56:25.011Z,47.13
2022-12-05T05:59:00.178Z,56.10
2022-12-05T06:01:27.690Z,46.47
2022-12-05T06:03:54.726Z,49.08
2022-12-05T06:06:22.668Z,51.05
2022-12-05T06:08:49.934Z,48.38
2022-12-05T06:11:28.614Z,55.03
2022-12-05T06:13:56.894Z,49.28
2022-12-05T06:16:24.319Z,50.38
2022-12-05T06:18:52.029Z,47.22
2022-12-05T06:21:19.186Z,46.50
2022-12-05T06:23:46.091Z,41.42
2022-12-05T06:26:15.649Z,43.97
2022-12-05T06:28:43.272Z,56.45
2022-12-05T06:31:19.846Z,48.40
2022-12-05T06:33:47.050Z,48.58
2022-12-05T06:36:17.674Z,38.45
2022-12-05T06:38:44.551Z,46.38
2022-12-05T06:41:16.876Z,44.83
2022-12-05T06:43:44.203Z,44.33
2022-12-05T06:46:13.647Z,50.17
2022-12-05T06:48:40.572Z,43.40
2022-12-05T06:51:10.979Z,52.15
2022-12-05T06:53:38.387Z,46.95
2022-12-05T06:56:16.785Z,43.63
2022-12-05T06:58:45.627Z,47.05
2022-12-05T07:01:32.547Z,39.55
2022-12-05T07:04:00.080Z,43.55
2022-12-05T07:06:27.762Z,46.47
2022-12-05T07:08:54.856Z,53.65
2022-12-05T07:11:21.763Z,51.17
2022-12-05T07:13:48.577Z,54.13
2022-12-05T07:16:15.579Z,62.53
2022-12-05T07:18:42.472Z,52.38
2022-12-05T07:21:13.772Z,57.13
2022-12-05T07:23:42.623Z,54.22
2022-12-05T07:26:11.849Z,55.47
2022-12-05T07:28:38.914Z,56.60
2022-12-05T07:31:08.758Z,56.30
2022-12-05T07:33:36.466Z,60.78
2022-12-05T07:36:12.910Z,50.05
2022-12-05T07:38:40.536Z,60.28
2022-12-05T07:41:14.225Z,56.90
2022-12-05T07:43:42.214Z,58.75
2022-12-05T07:46:13.594Z,62.25
2022-12-05T07:48:40.828Z,49.70
2022-12-05T07:51:09.548Z,49.40
2022-12-05T07:53:37.265Z,58.60
2022-12-05T07:56:06.595Z,52.13
2022-12-05T07:58:34.712Z,64.43
2022-12-05T08:01:16.660Z,58.65
2022-12-05T08:03:44.606Z,57.78
2022-12-05T08:06:17.230Z,51.17
2022-12-05T08:08:45.093Z,60.17
2022-12-05T08:11:17.929Z,57.13
2022-12-05T08:13:45.039Z,59.55
2022-12-05T08:16:14.614Z,68.20
2022-12-05T08:18:42.433Z,53.45
2022-12-05T08:21:12.858Z,58.50
2022-12-05T08:23:40.422Z,54.13
2022-12-05T08:26:12.892Z,63.88
2022-12-05T08:28:40.775Z,57.63
2022-12-05T08:31:10.805Z,56.17
2022-12-05T08:33:38.426Z,65.32
2022-12-05T08:36:07.689Z,56.42
2022-12-05T08:38:35.054Z,57.10
2022-12-05T08:41:06.708Z,57.30
2022-12-05T08:43:33.957Z,57.50
2022-12-05T08:46:01.482Z,54.85
2022-12-05T08:48:29.979Z,53.67
2022-12-05T08:50:57.519Z,60.60
2022-12-05T08:53:24.782Z,57.70
2022-12-05T08:55:51.650Z,55.70
2022-12-05T08:58:18.663Z,60.22
2022-12-05T09:00:45.558Z,49.08
2022-12-05T09:03:12.875Z,64.50
2022-12-05T09:09:20.721Z,55.95
2022-12-05T09:11:50.413Z,63.80
2022-12-05T09:14:18.338Z,58.13
2022-12-05T09:16:47.209Z,58.03
2022-12-05T09:19:20.957Z,62.65
2022-12-05T09:21:48.067Z,54.60
2022-12-05T09:24:15.213Z,51.53
2022-12-05T09:26:42.393Z,65.07
2022-12-05T09:29:16.203Z,60.17
2022-12-05T09:31:44.874Z,60.03
2022-12-05T09:34:13.547Z,51.88
2022-12-05T09:36:40.362Z,57.38
2022-12-05T09:39:07.244Z,53.30
2022-12-05T09:42:07.515Z,51.65
2022-12-05T09:45:15.257Z,51.85
2022-12-05T09:48:05.307Z,54.97
2022-12-05T09:50:41.048Z,58.47
2022-12-05T09:56:51.780Z,59.75
2022-12-05T09:59:20.622Z,63.00
2022-12-05T10:02:02.041Z,63.60
2022-12-05T10:04:32.097Z,60.67
2022-12-05T10:06:58.992Z,54.83
2022-12-05T10:09:28.865Z,54.30
2022-12-05T10:12:10.536Z,55.90
2022-12-05T10:15:16.097Z,63.28
2022-12-05T10:20:36.689Z,55.00
2022-12-05T10:23:55.544Z,61.85
2022-12-05T10:26:14.711Z,58.22
2022-12-05T10:28:54.550Z,59.67
2022-12-05T10:31:26.591Z,61.58
2022-12-05T10:34:03.219Z,56.47
2022-12-05T10:36:31.505Z,56.40
2022-12-05T10:38:59.774Z,63.40
2022-12-05T10:41:26.830Z,55.50
2022-12-05T10:43:53.731Z,51.35
2022-12-05T10:46:20.644Z,58.42
2022-12-05T10:48:47.581Z,47.55
2022-12-05T10:51:17.884Z,46.65
2022-12-05T10:53:51.202Z,54.38
2022-12-05T10:56:37.726Z,55.35
2022-12-05T10:59:05.702Z,51.40
2022-12-05T11:01:33.847Z,46.03
2022-12-05T11:04:13.809Z,50.70
2022-12-05T11:06:58.436Z,44.47
2022-12-05T11:09:28.295Z,54.67
2022-12-05T11:12:15.192Z,55.22
2022-12-05T11:14:55.446Z,47.17
2022-12-05T11:17:34.611Z,45.67
2022-12-05T11:20:02.501Z,49.17
2022-12-05T11:22:34.479Z,50.25
2022-12-05T11:25:02.126Z,49.40
2022-12-05T11:27:33.071Z,45.70
2022-12-05T11:30:18.990Z,48.22
2022-12-05T11:32:46.033Z,48.10
2022-12-05T11:35:12.806Z,46.50
2022-12-05T11:37:57.977Z,43.63
2022-12-05T11:40:54.336Z,49.35
2022-12-05T11:43:45.896Z,44.30
2022-12-05T11:46:27.858Z,45.78
2022-12-05T11:48:57.820Z,43.38
2022-12-05T11:52:01.729Z,41.28
2022-12-05T11:55:04.545Z,44.08
2022-12-05T11:57:57.534Z,42.63
2022-12-05T12:00:39.366Z,43.75
2022-12-05T12:03:37.508Z,43.05
2022-12-05T12:06:22.867Z,39.50
2022-12-05T12:09:11.844Z,47.42
2022-12-05T12:11:52.729Z,35.78
2022-12-05T12:14:43.625Z,41.70
2022-12-05T12:17:25.819Z,45.08
2022-12-05T12:20:14.989Z,36.58
2022-12-05T12:23:00.536Z,42.97
2022-12-05T12:25:42.120Z,41.22
2022-12-05T12:28:33.930Z,42.08
2022-12-05T12:31:12.702Z,43.40
2022-12-05T12:33:43.761Z,41.95
2022-12-05T12:36:27.936Z,42.47
2022-12-05T12:39:29.745Z,38.15
2022-12-05T12:42:10.014Z,38.47
2022-12-05T12:45:05.863Z,40.00
2022-12-05T12:47:50.798Z,43.15
2022-12-05T12:53:13.605Z,48.38
2022-12-05T12:56:08.496Z,40.92
2022-12-05T12:58:56.708Z,42.40
2022-12-05T13:01:35.774Z,36.50
2022-12-05T13:04:15.235Z,41.63
2022-12-05T13:06:44.572Z,45.10
2022-12-05T13:09:30.254Z,43.30
2022-12-05T13:12:05.235Z,39.22
2022-12-05T13:14:36.497Z,41.03
2022-12-05T13:17:06.750Z,38.45
2022-12-05T13:19:45.275Z,37.63
2022-12-05T13:22:13.587Z,37.60
2022-12-05T13:24:42.675Z,46.33
2022-12-05T13:27:18.859Z,39.60
2022-12-05T13:29:56.429Z,46.85
2022-12-05T13:32:36.377Z,45.22
2022-12-05T13:35:10.977Z,42.95
2022-12-05T13:38:05.449Z,43.55
2022-12-05T13:40:54.194Z,49.72
2022-12-05T13:47:07.600Z,44.50
2022-12-05T13:49:48.241Z,45.33
2022-12-05T13:52:23.363Z,50.10
2022-12-05T13:55:02.394Z,47.70
2022-12-05T13:57:38.340Z,44.72
2022-12-05T14:00:21.678Z,51.40
2022-12-05T14:02:51.424Z,49.28
2022-12-05T14:05:21.613Z,44.80
2022-12-05T14:07:50.283Z,50.90
2022-12-05T14:10:23.441Z,47.55
2022-12-05T14:12:59.257Z,47.60
2022-12-05T14:15:35.725Z,47.72
2022-12-05T14:18:25.660Z,52.55
2022-12-05T14:21:07.972Z,47.75
2022-12-05T14:23:34.786Z,55.05
2022-12-05T14:26:46.684Z,46.50
2022-12-05T14:29:43.799Z,46.15
2022-12-05T14:32:29.493Z,43.63
2022-12-05T14:34:59.208Z,49.45
2022-12-05T14:37:34.470Z,52.10
2022-12-05T14:40:03.564Z,52.55
2022-12-05T14:42:50.833Z,53.40
2022-12-05T14:45:25.897Z,52.75
2022-12-05T14:47:58.621Z,49.38
2022-12-05T14:50:43.741Z,55.63
2022-12-05T14:53:25.792Z,55.63
2022-12-05T14:56:13.503Z,49.63
2022-12-05T14:58:43.768Z,52.85
2022-12-05T15:01:16.479Z,50.00
2022-12-05T15:04:11.928Z,53.00
2022-12-05T15:06:50.537Z,56.63
2022-12-05T15:09:40.420Z,51.83
2022-12-05T15:12:33.283Z,51.70
2022-12-05T15:15:08.522Z,58.20
2022-12-05T15:17:56.043Z,57.45
2022-12-05T15:20:40.728Z,54.03
2022-12-05T15:23:45.622Z,55.22
2022-12-05T15:26:49.447Z,56.13
2022-12-05T15:29:32.951Z,60.38
2022-12-05T15:32:06.427Z,56.97
2022-12-05T15:34:44.833Z,51.78
2022-12-05T15:37:25.054Z,52.50
2022-12-05T15:40:00.945Z,54.97
2022-12-05T15:42:41.423Z,50.72
2022-12-05T15:45:14.693Z,57.13
2022-12-05T15:47:46.836Z,55.67
2022-12-05T15:50:29.711Z,56.03
2022-12-05T15:53:02.783Z,68.47
2022-12-05T15:55:35.603Z,64.82
2022-12-05T15:58:13.692Z,61.63
2022-12-05T16:00:45.055Z,61.97
2022-12-05T16:03:24.929Z,65.95
2022-12-05T16:05:59.918Z,60.13
2022-12-05T16:08:35.595Z,58.33
2022-12-05T16:11:09.724Z,64.18
2022-12-05T16:13:42.049Z,60.83
2022-12-05T16:16:14.237Z,69.20
2022-12-05T16:18:58.698Z,58.78
2022-12-05T16:21:39.081Z,57.97
2022-12-05T16:24:27.504Z,60.33
2022-12-05T16:27:06.767Z,57.10
2022-12-05T16:29:35.855Z,66.22
2022-12-05T16:32:05.623Z,59.90
2022-12-05T16:34:34.550Z,56.00
2022-12-05T16:37:01.521Z,63.47
2022-12-05T16:39:28.924Z,59.42
2022-12-05T16:41:56.091Z,64.75
2022-12-05T16:44:31.568Z,64.75
2022-12-05T16:46:58.799Z,59.90
2022-12-05T16:49:33.444Z,63.90
2022-12-05T16:52:14.236Z,57.05
2022-12-05T16:54:42.719Z,60.33
2022-12-05T16:57:13.835Z,67.68
2022-12-05T16:59:43.167Z,62.38
2022-12-05T17:02:18.529Z,61.25
2022-12-05T17:04:47.047Z,53.35
2022-12-05T17:07:14.020Z,63.63
2022-12-05T17:09:40.902Z,59.72
2022-12-05T17:12:22.778Z,58.63
2022-12-05T17:14:50.421Z,58.58
2022-12-05T17:17:18.386Z,53.88
2022-12-05T17:19:45.352Z,60.22
2022-12-05T17:22:14.489Z,56.35
2022-12-05T17:24:41.602Z,59.28
2022-12-05T17:27:12.657Z,56.53
2022-12-05T17:29:39.556Z,54.30
2022-12-05T17:32:06.437Z,56.70
2022-12-05T17:34:33.324Z,62.78
2022-12-05T17:37:00.388Z,56.05
2022-12-05T17:39:28.908Z,57.75
2022-12-05T17:41:56.097Z,57.65
2022-12-05T17:44:23.312Z,56.13
2022-12-05T17:46:50.265Z,62.58
2022-12-05T17:49:18.097Z,57.55
2022-12-05T17:52:13.558Z,52.58
2022-12-05T17:54:32.253Z,57.35
2022-12-05T17:56:59.116Z,65.57
2022-12-05T17:59:25.949Z,64.90
2022-12-05T18:01:52.784Z,61.10
2022-12-05T18:04:23.127Z,53.00
2022-12-05T18:06:50.759Z,62.75
2022-12-05T18:09:17.663Z,66.50
2022-12-05T18:11:44.908Z,62.80
2022-12-05T18:14:11.887Z,65.05
2022-12-05T18:16:38.773Z,66.10
2022-12-05T18:19:05.789Z,62.35
2022-12-05T18:21:32.605Z,59.25
2022-12-05T18:24:00.140Z,64.28
2022-12-05T18:26:27.116Z,64.97
2022-12-05T18:28:56.540Z,67.18
2022-12-05T18:31:23.813Z,73.05
2022-12-05T18:33:50.932Z,59.67
2022-12-05T18:36:20.313Z,71.07
2022-12-05T18:38:51.846Z,64.38
2022-12-05T18:41:19.271Z,68.30
2022-12-05T18:43:46.191Z,73.13
2022-12-05T18:46:13.142Z,66.15
2022-12-05T18:48:45.905Z,62.72
2022-12-05T18:51:17.507Z,68.25
2022-12-05T18:53:51.803Z,71.13
2022-12-05T18:58:57.962Z,72.32
2022-12-05T19:01:25.826Z,71.10
2022-12-05T19:03:53.320Z,71.63
2022-12-05T19:06:23.474Z,61.17
2022-12-05T19:09:00.347Z,72.82
2022-12-05T19:11:28.693Z,69.55
2022-12-05T19:13:56.879Z,71.28
2022-12-05T19:16:24.065Z,70.30
2022-12-05T19:18:57.159Z,76.43
2022-12-05T19:21:25.814Z,68.60
2022-12-05T19:23:52.993Z,71.22
2022-12-05T19:26:20.351Z,82.80
2022-12-05T19:32:39.815Z,82.30
2022-12-05T19:35:07.871Z,68.57
2022-12-05T19:37:35.801Z,84.30
2022-12-05T19:40:02.927Z,78.88
2022-12-05T19:42:31.049Z,73.85
2022-12-05T19:45:00.047Z,67.38
2022-12-05T19:51:17.762Z,81.75
2022-12-05T19:53:46.247Z,81.50
2022-12-05T19:56:13.532Z,78.38
2022-12-05T19:58:40.794Z,68.65
2022-12-05T20:01:09.900Z,75.22
2022-12-05T20:03:37.058Z,68.90
2022-12-05T20:06:04.733Z,79.15
2022-12-05T20:08:33.236Z,70.28
2022-12-05T20:11:05.750Z,94.82
2022-12-05T20:13:49.011Z,71.90
2022-12-05T20:16:18.791Z,72.32
2022-12-05T20:18:46.537Z,83.95
2022-12-05T20:21:16.005Z,70.55
2022-12-05T20:23:43.208Z,83.57
2022-12-05T20:26:16.057Z,74.80
2022-12-05T20:28:43.461Z,82.13
2022-12-05T20:31:19.207Z,85.50
2022-12-05T20:33:46.405Z,82.00
2022-12-05T20:36:16.061Z,88.10
2022-12-05T20:38:42.974Z,90.90
2022-12-05T20:41:16.748Z,85.78
2022-12-05T20:43:45.048Z,73.53
2022-12-05T20:46:17.623Z,75.60
2022-12-05T20:48:46.058Z,92.15
2022-12-05T20:51:15.717Z,78.95
2022-12-05T20:53:44.362Z,82.60
2022-12-05T20:59:52.991Z,78.55
2022-12-05T21:02:19.942Z,84.68
2022-12-05T21:04:46.827Z,76.18
2022-12-05T21:07:13.657Z,79.28
2022-12-05T21:09:40.925Z,71.65
2022-12-05T21:12:07.802Z,72.00
2022-12-05T21:14:35.048Z,78.15
2022-12-05T21:17:01.947Z,78.57
2022-12-05T21:19:29.072Z,70.07
2022-12-05T21:21:56.539Z,67.25
2022-12-05T21:24:23.566Z,72.72
2022-12-05T21:26:50.740Z,76.28
2022-12-05T21:29:18.282Z,63.90
2022-12-05T21:31:45.685Z,61.90
2022-12-05T21:34:19.481Z,64.70
2022-12-05T21:36:47.452Z,62.42
2022-12-05T21:39:15.731Z,54.50
2022-12-05T21:41:43.127Z,57.47
2022-12-05T21:44:10.433Z,55.53
2022-12-05T21:46:37.645Z,55.67
2022-12-05T21:49:04.688Z,62.38
2022-12-05T21:51:31.651Z,67.43
2022-12-05T21:53:58.547Z,60.13
2022-12-05T21:56:25.700Z,72.03
2022-12-05T21:58:53.513Z,76.72
2022-12-05T22:01:26.156Z,80.57
2022-12-05T22:03:56.143Z,85.97
2022-12-05T22:06:23.435Z,88.35
2022-12-05T22:08:50.348Z,92.82
2022-12-05T22:11:20.114Z,91.65
2022-12-05T22:13:48.917Z,99.47
2022-12-05T22:16:17.079Z,106.13
2022-12-05T22:18:44.329Z,101.18
2022-12-05T22:21:16.404Z,106.57
2022-12-05T22:23:43.645Z,110.50
2022-12-05T22:26:15.357Z,122.03
2022-12-05T22:28:42.307Z,106.38
2022-12-05T22:31:12.073Z,101.82
2022-12-05T22:33:39.492Z,98.05
2022-12-05T22:36:08.995Z,114.18
2022-12-05T22:38:38.578Z,113.00
2022-12-05T22:41:10.391Z,134.00
2022-12-05T22:43:38.029Z,126.43
2022-12-05T22:46:10.071Z,115.30
2022-12-05T22:48:37.118Z,112.97
2022-12-05T22:51:05.750Z,110.68
2022-12-05T22:53:32.754Z,95.95
2022-12-05T22:56:11.998Z,116.10
2022-12-05T22:58:39.844Z,105.15
2022-12-05T23:01:12.178Z,111.13
2022-12-05T23:03:40.230Z,125.43
2022-12-05T23:06:11.676Z,93.65
2022-12-05T23:08:40.233Z,114.35
2022-12-05T23:11:07.707Z,106.40
2022-12-05T23:13:35.712Z,91.43
2022-12-05T23:16:10.609Z,111.88
2022-12-05T23:18:46.954Z,107.78
2022-12-05T23:21:13.954Z,106.32
2022-12-05T23:23:41.003Z,99.50
2022-12-05T23:26:08.049Z,102.45
2022-12-05T23:28:35.210Z,95.70
2022-12-05T23:31:05.916Z,92.45
2022-12-05T23:33:33.196Z,114.47
2022-12-05T23:36:00.077Z,108.28
2022-12-05T23:38:27.398Z,106.25
2022-12-05T23:41:11.552Z,100.15
2022-12-05T23:43:38.757Z,97.15
2022-12-05T23:46:07.172Z,104.55
2022-12-05T23:48:34.613Z,81.57
2022-12-05T23:51:02.555Z,93.65
2022-12-05T23:53:31.088Z,92.57
2022-12-05T23:56:07.286Z,106.80
2022-12-05T23:58:34.393Z,97.72
